Time;durP1;ratioP1;P1;durP2;ratioP2;P2;SDS_P1;SDS_P2;PMS_P1;PMS_P2;Temp;Humidity;BMP_temperature;BMP_pressure;BME280_temperature;BME280_humidity;BME280_pressure;Samples;Min_cycle;Max_cycle;Signal;HPM_P1;HPM_P2
2023/09/24 00:02:27;;;;;;;4.50;2.70;;;;;;;13.62;82.88;100561.30;131097;1256;106954;-77
2023/09/24 00:05:38;;;;;;;3.40;2.90;;;;;;;13.60;83.10;100566.93;131110;1255;107748;-78
2023/09/24 00:08:44;;;;;;;3.60;2.70;;;;;;;13.58;83.08;100568.55;131075;1250;106744;-78
2023/09/24 00:11:50;;;;;;;4.90;2.90;;;;;;;13.56;83.07;100564.45;131143;1255;108783;-78
2023/09/24 00:14:56;;;;;;;4.40;3.00;;;;;;;13.59;82.91;100563.11;131092;1255;106733;-77
2023/09/24 00:18:04;;;;;;;3.70;3.30;;;;;;;13.53;83.00;100561.42;131044;1251;107461;-78
2023/09/24 00:21:10;;;;;;;4.30;3.30;;;;;;;13.44;83.07;100562.69;131033;1256;105438;-77
2023/09/24 00:24:18;;;;;;;4.00;2.90;;;;;;;13.40;83.21;100570.25;131142;1264;106739;-77
2023/09/24 00:27:24;;;;;;;3.90;2.70;;;;;;;13.42;83.25;100572.36;131128;1255;106962;-77
2023/09/24 00:30:31;;;;;;;5.60;3.00;;;;;;;13.46;83.36;100579.43;131049;1257;106464;-77
2023/09/24 00:33:36;;;;;;;3.50;3.20;;;;;;;13.52;83.20;100575.94;131110;1255;107709;-77
2023/09/24 00:36:42;;;;;;;3.50;3.10;;;;;;;13.58;83.39;100575.38;131093;1265;107543;-77
2023/09/24 00:39:47;;;;;;;3.60;3.30;;;;;;;13.56;83.13;100573.70;131044;1250;106773;-77
2023/09/24 00:42:53;;;;;;;4.40;3.20;;;;;;;13.53;83.09;100571.79;131067;1251;107765;-77
2023/09/24 00:46:03;;;;;;;4.70;3.50;;;;;;;13.52;83.16;100571.89;131087;1256;106899;-76
2023/09/24 00:49:09;;;;;;;4.40;3.20;;;;;;;13.51;83.26;100578.58;131043;1251;107846;-76
2023/09/24 00:52:14;;;;;;;4.00;2.90;;;;;;;13.51;83.13;100579.42;131094;1250;106768;-77
2023/09/24 00:55:20;;;;;;;4.60;3.70;;;;;;;13.55;83.21;100580.30;131067;1256;107062;-76
2023/09/24 00:58:27;;;;;;;3.80;3.40;;;;;;;13.59;83.15;100582.41;131019;1251;107782;-77
2023/09/24 01:01:34;;;;;;;4.80;4.20;;;;;;;13.60;83.13;100592.30;131124;1251;108388;-77
2023/09/24 01:04:40;;;;;;;6.20;4.70;;;;;;;13.59;83.10;100589.70;131125;1250;108703;-76
2023/09/24 01:07:45;;;;;;;5.70;5.20;;;;;;;13.57;83.12;100590.06;131091;1256;107963;-76
2023/09/24 01:10:52;;;;;;;5.90;4.60;;;;;;;13.54;83.23;100592.16;131031;1254;108557;-76
2023/09/24 01:13:58;;;;;;;5.50;3.40;;;;;;;13.52;83.01;100600.50;131122;1264;106370;-76
2023/09/24 01:17:05;;;;;;;5.30;3.20;;;;;;;13.49;83.11;100595.91;131096;1257;108011;-76
2023/09/24 01:20:13;;;;;;;5.00;3.00;;;;;;;13.48;83.16;100596.54;131064;1251;107682;-76
2023/09/24 01:23:19;;;;;;;3.30;2.90;;;;;;;13.50;83.08;100595.71;131130;1256;106945;-76
2023/09/24 01:26:25;;;;;;;3.90;3.10;;;;;;;13.49;83.02;100591.86;131143;1257;107776;-76
2023/09/24 01:29:31;;;;;;;4.70;3.10;;;;;;;13.47;83.05;100594.79;130984;1259;107018;-78
2023/09/24 01:32:37;;;;;;;5.00;3.40;;;;;;;13.45;83.00;100595.64;131096;1256;106873;-76
2023/09/24 01:35:44;;;;;;;4.90;3.10;;;;;;;13.43;83.08;100593.91;131061;1264;107782;-76
2023/09/24 01:38:49;;;;;;;3.50;2.70;;;;;;;13.41;83.05;100590.42;131061;1255;107264;-76
2023/09/24 01:41:56;;;;;;;4.90;3.00;;;;;;;13.38;82.92;100589.31;131053;1251;106351;-76
2023/09/24 01:45:03;;;;;;;3.80;2.70;;;;;;;13.37;83.08;100602.98;131087;1254;107823;-76
2023/09/24 01:48:10;;;;;;;3.50;3.00;;;;;;;13.38;83.00;100610.39;131115;1254;107692;-76
2023/09/24 01:51:16;;;;;;;4.10;2.70;;;;;;;13.38;83.00;100612.73;130913;1255;259215;-76
2023/09/24 01:54:24;;;;;;;4.20;3.00;;;;;;;13.36;82.87;100613.75;131143;1257;107004;-76
2023/09/24 01:57:30;;;;;;;4.60;3.20;;;;;;;13.33;83.05;100615.86;131130;1256;108244;-76
2023/09/24 02:00:37;;;;;;;4.50;3.20;;;;;;;13.28;82.88;100616.11;130979;1251;106954;-76
2023/09/24 02:03:42;;;;;;;4.20;3.60;;;;;;;13.26;82.98;100618.14;131109;1251;107753;-76
2023/09/24 02:06:48;;;;;;;3.40;3.10;;;;;;;13.24;82.98;100618.54;131102;1256;107547;-75
2023/09/24 02:09:53;;;;;;;3.80;3.30;;;;;;;13.23;82.97;100620.45;131124;1256;107138;-76
2023/09/24 02:13:00;;;;;;;3.70;3.20;;;;;;;13.23;83.05;100619.77;131113;1254;107709;-76
2023/09/24 02:16:06;;;;;;;4.20;3.30;;;;;;;13.24;83.09;100622.55;131030;1256;107735;-76
2023/09/24 02:19:14;;;;;;;4.70;3.70;;;;;;;13.22;83.29;100631.70;131078;1256;107757;-76
2023/09/24 02:22:22;;;;;;;4.10;3.60;;;;;;;13.17;83.17;100638.98;131060;1256;106491;-76
2023/09/24 02:25:29;;;;;;;3.70;3.30;;;;;;;13.13;83.37;100642.60;131008;1256;107727;-78
2023/09/24 02:28:38;;;;;;;6.20;3.10;;;;;;;13.12;83.50;100648.42;131290;1251;107041;-76
2023/09/24 02:31:43;;;;;;;4.10;3.10;;;;;;;13.12;83.48;100645.68;131214;1256;107923;-76
2023/09/24 02:34:49;;;;;;;5.10;3.30;;;;;;;13.17;83.59;100642.20;131105;1256;106788;-76
2023/09/24 02:37:55;;;;;;;4.20;3.40;;;;;;;13.16;83.57;100640.45;131099;1250;107393;-78
2023/09/24 02:41:04;;;;;;;4.40;3.50;;;;;;;13.10;83.56;100634.16;131278;1257;106551;-78
2023/09/24 02:44:10;;;;;;;4.10;3.50;;;;;;;13.04;83.62;100642.10;131213;1251;106975;-78
2023/09/24 02:47:15;;;;;;;4.20;3.70;;;;;;;13.02;83.92;100657.71;131342;1256;106617;-78
2023/09/24 02:50:23;;;;;;;3.20;2.90;;;;;;;13.05;83.84;100669.19;131130;1257;106746;-77
2023/09/24 02:53:29;;;;;;;3.50;3.00;;;;;;;13.09;83.92;100681.77;131200;1256;108642;-77
2023/09/24 02:56:34;;;;;;;3.90;3.50;;;;;;;13.15;83.74;100687.00;131134;1257;107628;-78
2023/09/24 02:59:40;;;;;;;5.20;3.30;;;;;;;13.18;83.72;100691.23;131187;1251;107475;-77
2023/09/24 03:02:46;;;;;;;4.00;3.10;;;;;;;13.18;83.65;100697.13;131108;1251;108599;-75
2023/09/24 03:05:53;;;;;;;3.90;3.50;;;;;;;13.14;83.86;100699.28;131208;1254;108059;-75
2023/09/24 03:08:58;;;;;;;4.60;3.50;;;;;;;13.14;83.94;100708.92;131016;1257;106658;-75
2023/09/24 03:12:05;;;;;;;5.50;3.90;;;;;;;13.08;83.83;100707.05;131168;1260;106166;-77
2023/09/24 03:15:12;;;;;;;5.60;3.60;;;;;;;13.02;84.08;100712.84;131095;1254;107786;-76
2023/09/24 03:18:17;;;;;;;5.00;3.50;;;;;;;12.98;84.29;100710.60;131125;1251;106620;-75
2023/09/24 03:21:23;;;;;;;5.30;4.00;;;;;;;13.01;84.32;100721.56;131136;1256;106637;-76
2023/09/24 03:24:28;;;;;;;4.30;3.70;;;;;;;13.00;84.28;100722.54;131067;1250;106129;-75
2023/09/24 03:27:35;;;;;;;4.80;4.30;;;;;;;13.00;84.39;100718.98;131071;1257;107408;-75
2023/09/24 03:30:41;;;;;;;4.50;3.80;;;;;;;12.95;84.32;100726.00;130993;1255;108020;-75
2023/09/24 03:33:47;;;;;;;5.70;4.10;;;;;;;12.95;84.39;100730.00;131047;1257;106433;-76
2023/09/24 03:36:52;;;;;;;6.70;4.60;;;;;;;12.96;84.51;100725.98;131164;1254;107683;-76
2023/09/24 03:39:58;;;;;;;5.70;4.50;;;;;;;12.88;84.73;100728.35;131091;1258;107676;-76
2023/09/24 03:43:04;;;;;;;5.80;5.00;;;;;;;12.85;84.98;100730.08;131164;1251;107208;-76
2023/09/24 03:46:10;;;;;;;6.40;5.30;;;;;;;12.77;85.47;100736.30;130988;1257;106985;-76
2023/09/24 03:49:16;;;;;;;6.90;5.60;;;;;;;12.70;85.57;100738.44;131093;1251;107668;-76
2023/09/24 03:52:23;;;;;;;6.80;4.90;;;;;;;12.64;85.38;100742.91;131000;1251;106645;-75
2023/09/24 03:55:30;;;;;;;6.00;5.20;;;;;;;12.67;85.70;100745.16;131019;1260;107930;-78
2023/09/24 03:58:35;;;;;;;6.00;5.40;;;;;;;12.67;85.75;100738.73;131102;1257;105527;-78
2023/09/24 04:01:41;;;;;;;8.20;5.50;;;;;;;12.67;85.80;100742.98;130962;1256;106512;-76
2023/09/24 04:04:46;;;;;;;6.00;5.50;;;;;;;12.64;85.87;100746.50;131030;1264;107235;-76
2023/09/24 04:07:55;;;;;;;6.40;5.60;;;;;;;12.62;86.03;100750.45;131021;1264;107785;-75
2023/09/24 04:11:01;;;;;;;6.10;5.50;;;;;;;12.64;85.97;100757.25;131089;1258;107574;-75
2023/09/24 04:14:07;;;;;;;6.70;5.40;;;;;;;12.62;86.07;100759.20;131109;1254;108460;-77
2023/09/24 04:17:13;;;;;;;7.10;5.50;;;;;;;12.59;86.41;100763.23;131275;1257;107389;-77
2023/09/24 04:20:20;;;;;;;7.60;6.40;;;;;;;12.57;86.62;100764.08;131006;1264;108608;-77
2023/09/24 04:23:26;;;;;;;6.90;5.90;;;;;;;12.52;86.90;100768.29;130939;1265;108531;-77
2023/09/24 04:26:31;;;;;;;6.10;5.40;;;;;;;12.52;86.38;100774.14;131024;1257;107426;-80
2023/09/24 04:29:37;;;;;;;6.80;5.90;;;;;;;12.61;86.41;100776.13;131113;1257;108071;-77
2023/09/24 04:32:43;;;;;;;6.90;5.80;;;;;;;12.62;86.70;100776.89;131073;1264;107155;-78
2023/09/24 04:35:49;;;;;;;7.40;6.00;;;;;;;12.63;86.81;100770.42;131075;1264;108002;-80
2023/09/24 04:38:54;;;;;;;7.80;6.20;;;;;;;12.59;86.92;100770.55;131093;1251;108229;-77
2023/09/24 04:42:00;;;;;;;8.20;5.90;;;;;;;12.54;87.14;100770.74;131094;1256;107079;-78
2023/09/24 04:45:07;;;;;;;7.30;5.80;;;;;;;12.51;87.26;100783.29;131296;1256;106854;-77
2023/09/24 04:48:13;;;;;;;5.70;5.00;;;;;;;12.54;86.87;100798.85;131176;1255;107509;-77
2023/09/24 04:51:19;;;;;;;9.80;5.50;;;;;;;12.64;86.79;100809.21;131205;1257;108531;-77
2023/09/24 04:54:24;;;;;;;6.40;5.80;;;;;;;12.68;86.74;100811.83;131133;1263;107313;-77
2023/09/24 04:57:30;;;;;;;7.60;6.10;;;;;;;12.80;86.56;100817.61;131361;1256;106957;-76
2023/09/24 05:00:36;;;;;;;6.70;5.90;;;;;;;12.83;86.44;100817.69;131195;1256;106958;-78
2023/09/24 05:03:42;;;;;;;7.20;5.00;;;;;;;12.85;86.54;100825.41;131178;1264;108711;-77
2023/09/24 05:06:47;;;;;;;8.70;5.60;;;;;;;12.93;86.60;100825.89;131231;1251;106834;-77
2023/09/24 05:09:53;;;;;;;9.10;5.50;;;;;;;12.96;86.61;100826.16;131135;1264;107951;-78
2023/09/24 05:12:59;;;;;;;6.60;6.00;;;;;;;12.99;86.53;100826.40;131255;1256;107023;-77
2023/09/24 05:16:05;;;;;;;8.40;6.00;;;;;;;13.03;86.55;100830.25;131173;1256;107691;-76
2023/09/24 05:19:11;;;;;;;8.90;5.70;;;;;;;13.13;86.44;100836.90;131164;1257;107785;-77
2023/09/24 05:22:17;;;;;;;6.10;5.50;;;;;;;13.15;86.38;100839.33;131040;1252;106270;-78
2023/09/24 05:25:23;;;;;;;6.30;5.30;;;;;;;13.16;86.41;100842.52;131088;1264;107672;-76
2023/09/24 05:28:28;;;;;;;6.50;5.50;;;;;;;13.14;86.33;100852.17;131098;1257;107534;-78
2023/09/24 05:31:34;;;;;;;6.70;5.70;;;;;;;13.19;86.48;100855.59;131236;1250;107100;-77
2023/09/24 05:34:40;;;;;;;7.10;5.70;;;;;;;13.28;86.56;100866.64;131230;1251;107188;-76
2023/09/24 05:37:45;;;;;;;6.10;5.10;;;;;;;13.40;86.37;100871.44;131460;1251;108573;-78
2023/09/24 05:40:51;;;;;;;6.20;5.50;;;;;;;13.46;86.34;100873.89;130987;1256;105690;-80
2023/09/24 05:44:01;;;;;;;6.10;5.10;;;;;;;13.47;86.25;100882.17;131112;1250;106616;-76
2023/09/24 05:47:07;;;;;;;7.20;5.70;;;;;;;13.52;86.35;100880.83;131966;1251;107779;-77
2023/09/24 05:50:13;;;;;;;7.50;5.80;;;;;;;13.54;86.10;100873.49;131743;1254;108642;-77
2023/09/24 05:53:19;;;;;;;7.30;5.70;;;;;;;13.47;86.23;100873.16;131222;1254;106970;-77
2023/09/24 05:56:25;;;;;;;6.60;5.10;;;;;;;13.43;86.37;100873.06;131115;1255;106918;-77
2023/09/24 05:59:30;;;;;;;6.10;5.00;;;;;;;13.48;86.57;100880.37;131262;1254;108601;-77
2023/09/24 06:02:36;;;;;;;6.30;5.30;;;;;;;13.58;86.35;100889.91;131056;1254;107786;-77
2023/09/24 06:05:42;;;;;;;7.00;5.40;;;;;;;13.69;86.10;100897.55;131022;1257;107732;-77
2023/09/24 06:08:49;;;;;;;6.10;5.50;;;;;;;13.79;86.07;100905.86;130960;1264;108689;-77
2023/09/24 06:11:55;;;;;;;7.70;5.60;;;;;;;13.80;85.60;100906.86;131009;1251;107031;-77
2023/09/24 06:15:01;;;;;;;6.20;5.50;;;;;;;13.74;85.62;100900.77;131060;1254;107085;-79
2023/09/24 06:18:07;;;;;;;7.10;5.50;;;;;;;13.73;85.78;100901.80;130938;1257;106721;-79
2023/09/24 06:21:18;;;;;;;6.30;5.00;;;;;;;13.76;85.99;100904.73;131713;1257;107662;-77
2023/09/24 06:24:24;;;;;;;7.30;5.30;;;;;;;13.81;85.70;100905.70;131191;1257;106307;-80
2023/09/24 06:27:29;;;;;;;5.70;5.20;;;;;;;13.86;85.83;100912.45;131088;1254;107853;-77
2023/09/24 06:30:35;;;;;;;7.50;5.60;;;;;;;13.93;85.47;100927.70;131110;1251;107093;-79
2023/09/24 06:33:41;;;;;;;8.30;5.70;;;;;;;13.97;85.40;100935.44;131456;1255;108462;-77
2023/09/24 06:36:46;;;;;;;7.90;5.60;;;;;;;14.07;85.93;100934.06;131446;1251;108518;-78
2023/09/24 06:39:52;;;;;;;6.60;5.10;;;;;;;14.17;85.41;100941.45;131294;1251;106840;-77
2023/09/24 06:42:58;;;;;;;5.30;4.80;;;;;;;14.25;85.18;100942.94;131037;1251;107618;-77
2023/09/24 06:46:05;;;;;;;6.40;5.10;;;;;;;14.32;84.85;100948.10;131053;1257;108225;-76
2023/09/24 06:49:12;;;;;;;6.70;5.40;;;;;;;14.39;84.94;100949.41;131011;1251;106608;-77
2023/09/24 06:52:17;;;;;;;8.60;5.50;;;;;;;14.40;84.46;100946.91;131106;1251;107157;-76
2023/09/24 06:55:23;;;;;;;6.00;5.30;;;;;;;14.38;84.07;100953.73;131010;1256;106541;-76
2023/09/24 06:58:30;;;;;;;8.60;5.10;;;;;;;14.36;84.26;100957.73;131015;1260;106893;-77
2023/09/24 07:01:36;;;;;;;6.00;4.80;;;;;;;14.39;84.28;100961.20;131042;1255;106363;-79
2023/09/24 07:04:42;;;;;;;5.10;4.60;;;;;;;14.43;84.15;100966.66;131028;1257;106209;-77
2023/09/24 07:07:47;;;;;;;7.30;5.40;;;;;;;14.51;84.02;100967.84;131002;1256;107078;-77
2023/09/24 07:11:27;;;;;;;7.20;5.40;;;;;;;14.67;83.87;100969.20;131115;1255;107798;-77
2023/09/24 07:14:33;;;;;;;7.00;5.70;;;;;;;14.80;83.58;100965.15;131086;1251;108013;-77
2023/09/24 07:17:39;;;;;;;8.90;5.80;;;;;;;14.89;83.44;100961.81;130930;1266;108323;-77
2023/09/24 07:20:49;;;;;;;6.40;5.00;;;;;;;15.06;83.61;100963.02;131038;1257;108721;-79
2023/09/24 07:23:55;;;;;;;6.70;4.90;;;;;;;15.25;83.29;100967.46;131278;1251;105609;-77
2023/09/24 07:27:03;;;;;;;6.90;5.10;;;;;;;15.39;82.40;100980.30;131390;1250;107719;-78
2023/09/24 07:30:10;;;;;;;7.60;5.10;;;;;;;15.50;81.32;100985.36;131074;1254;107663;-78
2023/09/24 07:33:16;;;;;;;6.80;4.90;;;;;;;15.58;81.36;100978.58;131569;1255;107659;-79
2023/09/24 07:36:22;;;;;;;5.60;4.90;;;;;;;15.54;79.87;100975.11;131754;1251;106999;-78
2023/09/24 07:39:28;;;;;;;5.60;5.00;;;;;;;15.60;81.26;100987.89;131134;1264;108663;-80
2023/09/24 07:42:34;;;;;;;4.80;4.00;;;;;;;15.66;81.83;100986.48;131328;1256;107020;-80
2023/09/24 07:45:42;;;;;;;7.70;4.40;;;;;;;15.85;81.95;100991.27;131471;1251;107521;-80
2023/09/24 07:48:49;;;;;;;5.60;4.60;;;;;;;15.95;80.89;100992.46;131204;1254;107698;-78
2023/09/24 07:51:54;;;;;;;4.50;4.10;;;;;;;15.98;80.30;100994.17;131395;1251;108666;-79
2023/09/24 07:55:01;;;;;;;6.10;4.10;;;;;;;16.03;80.79;100999.53;130881;1264;107001;-80
2023/09/24 07:58:06;;;;;;;4.70;4.30;;;;;;;16.12;80.90;101004.59;131544;1251;107767;-77
2023/09/24 08:01:14;;;;;;;6.40;4.60;;;;;;;16.16;79.43;101004.08;131549;1251;108637;-78
2023/09/24 08:04:19;;;;;;;5.30;4.30;;;;;;;16.20;79.80;101004.44;131320;1257;108506;-78
2023/09/24 08:07:29;;;;;;;5.50;4.30;;;;;;;16.20;79.45;100997.23;131159;1251;108511;-77
2023/09/24 08:10:34;;;;;;;5.10;4.20;;;;;;;16.18;78.78;101001.50;131813;1251;107753;-78
2023/09/24 08:13:40;;;;;;;4.40;3.90;;;;;;;16.21;79.08;101010.10;131512;1254;107201;-77
2023/09/24 08:16:46;;;;;;;5.40;4.10;;;;;;;16.27;79.02;101013.38;131402;1250;106624;-77
2023/09/24 08:19:51;;;;;;;4.50;3.90;;;;;;;16.30;77.65;101020.77;131552;1251;107485;-77
2023/09/24 08:22:57;;;;;;;4.60;3.90;;;;;;;16.33;79.04;101022.42;131318;1250;106349;-79
2023/09/24 08:26:02;;;;;;;4.30;3.70;;;;;;;16.42;79.33;101024.99;131275;1254;106540;-78
2023/09/24 08:29:08;;;;;;;4.90;3.80;;;;;;;16.52;79.36;101027.95;131159;1254;109031;-80
2023/09/24 08:32:14;;;;;;;4.40;3.90;;;;;;;16.57;78.24;101033.70;131051;1266;107755;-79
2023/09/24 08:35:20;;;;;;;7.00;3.60;;;;;;;16.67;77.74;101033.55;131465;1250;106906;-79
2023/09/24 08:38:25;;;;;;;3.80;3.40;;;;;;;16.81;78.57;101028.17;131927;1250;107733;-80
2023/09/24 08:41:31;;;;;;;3.90;3.50;;;;;;;17.00;78.48;101028.27;131993;1250;108516;-80
2023/09/24 08:44:40;;;;;;;4.80;3.40;;;;;;;17.14;77.76;101022.39;131675;1251;109564;-81
2023/09/24 08:47:47;;;;;;;4.30;3.70;;;;;;;17.30;78.08;101021.59;131384;1251;108412;-80
2023/09/24 08:50:53;;;;;;;4.90;3.40;;;;;;;17.38;77.34;101028.22;131428;1254;106598;-80
2023/09/24 08:54:01;;;;;;;4.60;3.40;;;;;;;17.43;75.75;101029.59;131192;1254;106462;-80
2023/09/24 08:57:07;;;;;;;3.80;3.00;;;;;;;17.42;76.78;101030.32;131097;1257;107685;-80
2023/09/24 09:00:15;;;;;;;4.10;3.50;;;;;;;17.48;75.86;101026.86;131082;1254;107699;-79
2023/09/24 09:03:24;;;;;;;4.10;3.60;;;;;;;17.45;74.84;101025.60;131047;1254;107773;-79
2023/09/24 09:06:34;;;;;;;3.60;2.90;;;;;;;17.37;74.31;101029.48;131066;1253;108646;-79
2023/09/24 09:09:41;;;;;;;3.90;2.80;;;;;;;17.36;76.07;101031.70;131073;1252;107751;-81
2023/09/24 09:12:47;;;;;;;4.60;3.30;;;;;;;17.51;75.77;101044.15;131119;1263;107917;-80
2023/09/24 09:16:03;;;;;;;4.50;3.20;;;;;;;17.68;75.86;101050.16;131229;1251;107770;-79
2023/09/24 09:19:10;;;;;;;4.40;3.40;;;;;;;17.75;73.73;101052.02;131066;1252;107118;-80
2023/09/24 09:22:20;;;;;;;3.50;3.00;;;;;;;17.80;72.95;101050.47;131065;1251;107691;-80
2023/09/24 09:25:25;;;;;;;4.80;3.10;;;;;;;17.91;74.04;101046.49;131052;1254;108234;-80
2023/09/24 09:28:34;;;;;;;3.90;2.90;;;;;;;18.06;73.12;101055.18;131090;1250;106479;-79
2023/09/24 09:31:51;;;;;;;3.30;2.60;;;;;;;18.05;72.32;101061.60;131120;1255;107690;-80
2023/09/24 09:34:56;;;;;;;4.10;2.40;;;;;;;18.11;73.47;101058.72;131123;1250;107159;-80
2023/09/24 09:38:13;;;;;;;3.70;2.70;;;;;;;18.33;72.02;101061.69;131164;1253;107097;-79
2023/09/24 09:41:21;;;;;;;4.00;2.80;;;;;;;18.35;70.86;101065.28;131206;1263;107017;-80
2023/09/24 09:44:27;;;;;;;3.00;2.70;;;;;;;18.37;71.73;101065.39;131389;1250;106862;-79
2023/09/24 09:47:37;;;;;;;2.90;2.00;;;;;;;18.46;72.19;101064.69;131208;1251;107856;-80
2023/09/24 09:50:46;;;;;;;2.40;1.70;;;;;;;18.46;68.05;101067.40;131069;1251;107734;-80
2023/09/24 09:53:53;;;;;;;3.80;2.50;;;;;;;18.40;67.14;101069.17;131076;1264;107474;-79
2023/09/24 09:56:59;;;;;;;4.00;2.00;;;;;;;18.37;69.01;101068.10;131138;1252;108368;-79
2023/09/24 10:00:09;;;;;;;4.30;2.40;;;;;;;18.40;68.40;101070.39;131359;1251;107723;-81
2023/09/24 10:03:18;;;;;;;2.10;1.30;;;;;;;18.46;67.92;101075.83;131717;1252;107443;-80
2023/09/24 10:06:24;;;;;;;2.20;1.80;;;;;;;18.54;67.50;101083.23;131242;1254;107076;-80
2023/09/24 10:09:39;;;;;;;2.70;2.00;;;;;;;18.51;66.52;101086.09;131151;1251;107062;-80
2023/09/24 10:12:45;;;;;;;2.30;2.00;;;;;;;18.53;67.61;101081.34;131256;1251;107640;-80
2023/09/24 10:15:51;;;;;;;2.10;1.30;;;;;;;18.67;67.79;101076.02;131145;1262;106527;-80
2023/09/24 10:19:02;;;;;;;1.90;1.70;;;;;;;18.78;66.38;101087.05;131375;1264;107178;-80
2023/09/24 10:22:29;;;;;;;2.50;1.70;;;;;;;18.92;67.56;101093.53;131144;1254;106116;-80
2023/09/24 10:25:39;;;;;;;4.10;2.00;;;;;;;18.95;65.40;101101.30;131124;1254;107717;-79
2023/09/24 10:28:54;;;;;;;2.20;1.80;;;;;;;18.82;64.38;101102.83;131143;1264;107059;-79
2023/09/24 10:32:17;;;;;;;2.60;1.80;;;;;;;18.70;65.78;101106.39;131085;1251;107875;-79
2023/09/24 10:35:23;;;;;;;1.90;1.70;;;;;;;18.63;64.14;101112.75;131248;1251;107499;-77
2023/09/24 10:38:28;;;;;;;2.60;2.10;;;;;;;18.56;63.84;101111.08;130991;1254;107750;-78
2023/09/24 10:41:35;;;;;;;2.60;2.10;;;;;;;18.47;64.46;101113.89;131072;1251;106780;-78
2023/09/24 10:44:41;;;;;;;3.60;2.50;;;;;;;18.45;64.16;101114.70;130973;1252;107944;-78
2023/09/24 10:47:47;;;;;;;3.10;1.90;;;;;;;18.37;63.82;101107.09;130959;1250;107340;-78
2023/09/24 10:50:53;;;;;;;5.00;2.60;;;;;;;18.36;63.97;101106.67;131396;1250;108613;-80
2023/09/24 10:54:16;;;;;;;6.30;3.70;;;;;;;18.41;65.50;101101.16;131467;1254;106371;-78
2023/09/24 10:57:28;;;;;;;6.10;4.40;;;;;;;18.49;65.98;101102.66;131390;1255;107665;-78
2023/09/24 11:00:35;;;;;;;4.90;3.20;;;;;;;18.49;66.14;101100.13;131486;1251;107717;-79
2023/09/24 11:03:41;;;;;;;4.10;3.30;;;;;;;18.47;65.71;101098.96;131039;1251;107045;-80
2023/09/24 11:06:46;;;;;;;3.30;2.80;;;;;;;18.36;64.89;101098.30;131668;1254;106733;-79
2023/09/24 11:09:53;;;;;;;3.60;3.00;;;;;;;18.34;65.68;101095.95;131457;1254;105969;-80
2023/09/24 11:13:01;;;;;;;5.70;3.60;;;;;;;18.35;65.48;101094.11;131454;1254;108299;-78
2023/09/24 11:16:07;;;;;;;3.90;3.20;;;;;;;18.31;66.01;101094.77;131062;1254;107527;-78
2023/09/24 11:19:12;;;;;;;4.60;3.60;;;;;;;18.38;65.88;101097.63;131626;1251;108311;-77
2023/09/24 11:22:20;;;;;;;3.20;2.90;;;;;;;18.44;65.63;101096.96;131243;1250;106450;-78
2023/09/24 11:25:26;;;;;;;3.90;3.30;;;;;;;18.54;66.03;101099.71;131757;1251;107601;-79
2023/09/24 11:28:32;;;;;;;5.10;3.60;;;;;;;18.57;64.39;101095.42;131186;1254;106334;-78
2023/09/24 11:31:43;;;;;;;3.20;2.90;;;;;;;18.57;64.71;101093.55;131101;1253;107167;-80
2023/09/24 11:34:49;;;;;;;3.30;2.90;;;;;;;18.60;64.01;101093.02;131000;1254;107986;-79
2023/09/24 11:37:56;;;;;;;2.90;2.60;;;;;;;18.66;64.58;101089.68;130964;1254;107626;-80
2023/09/24 11:41:11;;;;;;;3.20;2.90;;;;;;;18.78;63.40;101084.17;130992;1255;106893;-79
2023/09/24 11:44:17;;;;;;;3.40;2.50;;;;;;;18.98;65.12;101082.50;131365;1250;107748;-81
2023/09/24 11:47:23;;;;;;;2.60;2.20;;;;;;;19.17;64.30;101084.35;131119;1254;106779;-80
2023/09/24 11:50:28;;;;;;;2.90;2.50;;;;;;;19.21;63.80;101084.49;131073;1254;108588;-80
2023/09/24 11:53:34;;;;;;;2.60;2.30;;;;;;;19.18;62.68;101084.04;131147;1250;108423;-81
2023/09/24 11:56:39;;;;;;;3.30;1.90;;;;;;;19.23;63.89;101085.05;131214;1254;108706;-81
2023/09/24 11:59:45;;;;;;;3.50;2.10;;;;;;;19.36;64.34;101079.09;131045;1254;107653;-81
2023/09/24 12:02:51;;;;;;;2.80;1.90;;;;;;;19.49;63.92;101078.57;131287;1254;106615;-81
2023/09/24 12:05:56;;;;;;;2.10;1.70;;;;;;;19.49;62.37;101080.35;131290;1250;107643;-80
2023/09/24 12:09:02;;;;;;;7.00;2.00;;;;;;;19.44;63.44;101080.77;131064;1254;108550;-78
2023/09/24 12:12:08;;;;;;;2.20;1.50;;;;;;;19.41;61.76;101078.48;131811;1250;107128;-77
2023/09/24 12:15:14;;;;;;;1.60;1.10;;;;;;;19.36;61.00;101073.15;131407;1250;107095;-79
2023/09/24 12:18:21;;;;;;;2.10;1.30;;;;;;;19.34;60.90;101076.90;131901;1250;107885;-77
2023/09/24 12:21:27;;;;;;;3.00;1.10;;;;;;;19.37;60.95;101078.23;131157;1257;107017;-78
2023/09/24 12:24:34;;;;;;;1.20;1.00;;;;;;;19.41;60.43;101072.78;131256;1250;107391;-80
2023/09/24 12:27:41;;;;;;;1.40;1.10;;;;;;;19.40;58.97;101074.60;131181;1254;107739;-77
2023/09/24 12:30:46;;;;;;;1.30;0.90;;;;;;;19.40;57.89;101080.39;131220;1256;108653;-77
2023/09/24 12:33:52;;;;;;;2.20;1.00;;;;;;;19.37;57.99;101073.23;131231;1254;107253;-77
2023/09/24 12:36:58;;;;;;;1.30;0.80;;;;;;;19.45;58.89;101070.62;130987;1254;107752;-77
2023/09/24 12:40:07;;;;;;;2.20;1.00;;;;;;;19.47;58.17;101072.54;130955;1251;106722;-77
2023/09/24 12:43:13;;;;;;;1.30;1.10;;;;;;;19.45;55.61;101068.23;130978;1254;107187;-78
2023/09/24 12:46:18;;;;;;;1.10;1.00;;;;;;;19.39;56.17;101069.34;130983;1254;106802;-78
2023/09/24 12:49:24;;;;;;;1.20;0.90;;;;;;;19.29;55.58;101067.77;130970;1254;106695;-79
2023/09/24 12:52:34;;;;;;;2.30;1.00;;;;;;;19.22;56.21;101068.73;130990;1254;106782;-78
2023/09/24 12:55:39;;;;;;;1.70;1.10;;;;;;;19.23;55.88;101071.16;130990;1254;108633;-78
2023/09/24 12:58:45;;;;;;;1.70;1.00;;;;;;;19.25;54.55;101070.18;130981;1254;107165;-77
2023/09/24 13:01:54;;;;;;;2.10;1.30;;;;;;;19.32;54.87;101071.98;130993;1255;106880;-77
2023/09/24 13:04:59;;;;;;;1.20;0.90;;;;;;;19.38;55.00;101068.75;130966;1254;107507;-77
2023/09/24 13:08:06;;;;;;;1.40;1.00;;;;;;;19.45;56.13;101075.07;130857;1250;107853;-77
2023/09/24 13:11:12;;;;;;;1.10;1.00;;;;;;;19.56;57.01;101072.58;131032;1254;107132;-78
2023/09/24 13:14:18;;;;;;;1.90;1.20;;;;;;;19.65;55.69;101072.31;130966;1251;107379;-78
2023/09/24 13:17:23;;;;;;;1.70;1.30;;;;;;;19.68;55.23;101075.84;130952;1264;107732;-78
2023/09/24 13:20:30;;;;;;;1.70;1.10;;;;;;;19.66;55.03;101074.90;130999;1254;108439;-78
2023/09/24 13:23:35;;;;;;;1.10;0.90;;;;;;;19.59;54.46;101075.18;130987;1251;108654;-79
2023/09/24 13:26:43;;;;;;;1.40;1.10;;;;;;;19.57;54.16;101078.00;131010;1254;108576;-78
2023/09/24 13:29:51;;;;;;;2.00;1.20;;;;;;;19.56;54.68;101077.14;131304;1250;106313;-79
2023/09/24 13:32:57;;;;;;;1.40;1.20;;;;;;;19.59;54.88;101082.25;131473;1251;107009;-78
2023/09/24 13:36:03;;;;;;;3.10;1.30;;;;;;;19.59;54.19;101081.67;131040;1254;107206;-77
2023/09/24 13:39:10;;;;;;;3.20;1.10;;;;;;;19.57;54.51;101083.90;130914;1251;108649;-79
2023/09/24 13:42:16;;;;;;;1.10;1.00;;;;;;;19.54;55.05;101085.95;130978;1255;108662;-78
2023/09/24 13:45:21;;;;;;;1.20;0.90;;;;;;;19.52;53.68;101083.42;130952;1255;106892;-78
2023/09/24 13:48:27;;;;;;;1.90;1.10;;;;;;;19.50;53.71;101082.99;130941;1255;107678;-78
2023/09/24 13:51:35;;;;;;;2.50;1.40;;;;;;;19.46;54.77;101082.54;131050;1250;222389;-77
2023/09/24 13:54:41;;;;;;;1.10;0.90;;;;;;;19.45;54.90;101079.83;130986;1254;108102;-77
2023/09/24 13:57:46;;;;;;;1.30;0.80;;;;;;;19.40;55.28;101079.52;131160;1254;107977;-78
2023/09/24 14:00:52;;;;;;;1.10;1.00;;;;;;;19.41;55.62;101086.77;130962;1254;108599;-81
2023/09/24 14:03:58;;;;;;;1.20;1.00;;;;;;;19.40;55.18;101084.90;131102;1254;107493;-79
2023/09/24 14:07:05;;;;;;;1.60;1.20;;;;;;;19.40;55.15;101093.89;131293;1255;107438;-79
2023/09/24 14:13:35;;;;;;;1.30;1.10;;;;;;;19.34;55.07;101102.30;130983;1251;107813;-78